sensor_id;sensor_type;location;lat;lon;timestamp;temperature;humidity
23717;DHT22;22094;52.130;5.598;2023-04-24T00:01:27;9.20;99.90
23717;DHT22;22094;52.130;5.598;2023-04-24T00:03:55;9.20;99.90
23717;DHT22;22094;52.130;5.598;2023-04-24T00:06:27;9.20;99.90
23717;DHT22;22094;52.130;5.598;2023-04-24T00:09:01;9.30;99.90
23717;DHT22;22094;52.130;5.598;2023-04-24T00:11:27;9.20;99.90
23717;DHT22;22094;52.130;5.598;2023-04-24T00:13:53;9.30;99.90
23717;DHT22;22094;52.130;5.598;2023-04-24T00:16:19;9.30;99.90
23717;DHT22;22094;52.130;5.598;2023-04-24T00:18:44;9.30;99.90
23717;DHT22;22094;52.130;5.598;2023-04-24T00:21:10;9.40;99.90
23717;DHT22;22094;52.130;5.598;2023-04-24T00:23:36;9.40;99.90
23717;DHT22;22094;52.130;5.598;2023-04-24T00:26:02;9.40;99.90
23717;DHT22;22094;52.130;5.598;2023-04-24T00:28:27;9.40;99.90
23717;DHT22;22094;52.130;5.598;2023-04-24T00:30:53;9.40;99.90
23717;DHT22;22094;52.130;5.598;2023-04-24T00:33:19;9.40;99.90
23717;DHT22;22094;52.130;5.598;2023-04-24T00:35:45;9.50;99.90
23717;DHT22;22094;52.130;5.598;2023-04-24T00:38:10;9.30;99.90
23717;DHT22;22094;52.130;5.598;2023-04-24T00:40:36;9.30;99.90
23717;DHT22;22094;52.130;5.598;2023-04-24T00:43:02;9.30;99.90
23717;DHT22;22094;52.130;5.598;2023-04-24T00:45:27;9.60;99.90
23717;DHT22;22094;52.130;5.598;2023-04-24T00:47:53;9.30;99.90
23717;DHT22;22094;52.130;5.598;2023-04-24T00:50:19;9.30;99.90
23717;DHT22;22094;52.130;5.598;2023-04-24T00:52:46;9.30;99.90
23717;DHT22;22094;52.130;5.598;2023-04-24T00:55:12;9.70;99.90
23717;DHT22;22094;52.130;5.598;2023-04-24T00:57:38;9.30;99.90
23717;DHT22;22094;52.130;5.598;2023-04-24T01:00:05;9.30;99.90
23717;DHT22;22094;52.130;5.598;2023-04-24T01:02:33;9.30;99.90
23717;DHT22;22094;52.130;5.598;2023-04-24T01:05:00;9.30;99.90
23717;DHT22;22094;52.130;5.598;2023-04-24T01:07:26;9.20;99.90
23717;DHT22;22094;52.130;5.598;2023-04-24T01:09:52;9.20;99.90
23717;DHT22;22094;52.130;5.598;2023-04-24T01:12:18;9.20;99.90
23717;DHT22;22094;52.130;5.598;2023-04-24T01:14:44;9.20;99.90
23717;DHT22;22094;52.130;5.598;2023-04-24T01:17:10;9.20;99.90
23717;DHT22;22094;52.130;5.598;2023-04-24T01:19:36;9.20;99.90
23717;DHT22;22094;52.130;5.598;2023-04-24T01:22:02;9.20;99.90
23717;DHT22;22094;52.130;5.598;2023-04-24T01:24:28;9.20;99.90
23717;DHT22;22094;52.130;5.598;2023-04-24T01:26:54;9.30;99.90
23717;DHT22;22094;52.130;5.598;2023-04-24T01:29:20;9.20;99.90
23717;DHT22;22094;52.130;5.598;2023-04-24T01:31:46;9.20;99.90
23717;DHT22;22094;52.130;5.598;2023-04-24T01:34:12;9.20;99.90
23717;DHT22;22094;52.130;5.598;2023-04-24T01:36:38;9.30;99.90
23717;DHT22;22094;52.130;5.598;2023-04-24T01:39:05;9.20;99.90
23717;DHT22;22094;52.130;5.598;2023-04-24T01:41:30;9.20;99.90
23717;DHT22;22094;52.130;5.598;2023-04-24T01:43:57;9.20;99.90
23717;DHT22;22094;52.130;5.598;2023-04-24T01:46:24;9.20;99.90
23717;DHT22;22094;52.130;5.598;2023-04-24T01:48:51;9.20;99.90
23717;DHT22;22094;52.130;5.598;2023-04-24T01:51:17;9.10;99.90
23717;DHT22;22094;52.130;5.598;2023-04-24T01:53:42;9.10;99.90
23717;DHT22;22094;52.130;5.598;2023-04-24T01:56:08;9.20;99.90
23717;DHT22;22094;52.130;5.598;2023-04-24T01:58:34;9.20;99.90
23717;DHT22;22094;52.130;5.598;2023-04-24T02:01:00;9.20;99.90
23717;DHT22;22094;52.130;5.598;2023-04-24T02:03:26;9.30;99.90
23717;DHT22;22094;52.130;5.598;2023-04-24T02:05:52;9.30;99.90
23717;DHT22;22094;52.130;5.598;2023-04-24T02:08:17;9.40;99.90
23717;DHT22;22094;52.130;5.598;2023-04-24T02:10:43;9.40;99.90
23717;DHT22;22094;52.130;5.598;2023-04-24T02:13:09;9.40;99.90
23717;DHT22;22094;52.130;5.598;2023-04-24T02:15:35;9.30;99.90
23717;DHT22;22094;52.130;5.598;2023-04-24T02:18:01;9.30;99.90
23717;DHT22;22094;52.130;5.598;2023-04-24T02:20:27;9.60;99.90
23717;DHT22;22094;52.130;5.598;2023-04-24T02:22:52;9.30;99.90
23717;DHT22;22094;52.130;5.598;2023-04-24T02:25:18;9.20;99.90
23717;DHT22;22094;52.130;5.598;2023-04-24T02:27:43;9.20;99.90
23717;DHT22;22094;52.130;5.598;2023-04-24T02:30:09;9.20;99.90
23717;DHT22;22094;52.130;5.598;2023-04-24T02:32:35;9.20;99.90
23717;DHT22;22094;52.130;5.598;2023-04-24T02:35:01;9.20;99.90
23717;DHT22;22094;52.130;5.598;2023-04-24T02:37:27;9.20;99.90
23717;DHT22;22094;52.130;5.598;2023-04-24T02:39:52;9.30;99.90
23717;DHT22;22094;52.130;5.598;2023-04-24T02:42:18;9.30;99.90
23717;DHT22;22094;52.130;5.598;2023-04-24T02:44:43;9.30;99.90
23717;DHT22;22094;52.130;5.598;2023-04-24T02:47:09;9.30;99.90
23717;DHT22;22094;52.130;5.598;2023-04-24T02:49:35;9.30;99.90
23717;DHT22;22094;52.130;5.598;2023-04-24T02:52:00;9.30;99.90
23717;DHT22;22094;52.130;5.598;2023-04-24T02:54:26;9.30;99.90
23717;DHT22;22094;52.130;5.598;2023-04-24T02:56:51;9.30;99.90
23717;DHT22;22094;52.130;5.598;2023-04-24T02:59:17;9.30;99.90
23717;DHT22;22094;52.130;5.598;2023-04-24T03:01:42;9.30;99.90
23717;DHT22;22094;52.130;5.598;2023-04-24T03:04:08;9.30;99.90
23717;DHT22;22094;52.130;5.598;2023-04-24T03:06:33;9.30;99.90
23717;DHT22;22094;52.130;5.598;2023-04-24T03:09:00;9.30;99.90
23717;DHT22;22094;52.130;5.598;2023-04-24T03:11:26;9.30;99.90
23717;DHT22;22094;52.130;5.598;2023-04-24T03:13:52;9.30;99.90
23717;DHT22;22094;52.130;5.598;2023-04-24T03:16:17;9.30;99.90
23717;DHT22;22094;52.130;5.598;2023-04-24T03:18:43;9.30;99.90
23717;DHT22;22094;52.130;5.598;2023-04-24T03:21:08;9.30;99.90
23717;DHT22;22094;52.130;5.598;2023-04-24T03:23:34;9.30;99.90
23717;DHT22;22094;52.130;5.598;2023-04-24T03:25:59;9.20;99.90
23717;DHT22;22094;52.130;5.598;2023-04-24T03:28:25;9.20;99.90
23717;DHT22;22094;52.130;5.598;2023-04-24T03:30:51;9.20;99.90
23717;DHT22;22094;52.130;5.598;2023-04-24T03:33:17;9.20;99.90
23717;DHT22;22094;52.130;5.598;2023-04-24T03:35:42;9.20;99.90
23717;DHT22;22094;52.130;5.598;2023-04-24T03:38:08;9.20;99.90
23717;DHT22;22094;52.130;5.598;2023-04-24T03:40:34;9.20;99.90
23717;DHT22;22094;52.130;5.598;2023-04-24T03:42:59;9.20;99.90
23717;DHT22;22094;52.130;5.598;2023-04-24T03:45:25;9.20;99.90
23717;DHT22;22094;52.130;5.598;2023-04-24T03:47:50;9.20;99.90
23717;DHT22;22094;52.130;5.598;2023-04-24T03:50:16;9.10;99.90
23717;DHT22;22094;52.130;5.598;2023-04-24T03:52:42;9.20;99.90
23717;DHT22;22094;52.130;5.598;2023-04-24T03:55:07;9.20;99.90
23717;DHT22;22094;52.130;5.598;2023-04-24T03:57:33;9.20;99.90
23717;DHT22;22094;52.130;5.598;2023-04-24T03:59:58;9.20;99.90
23717;DHT22;22094;52.130;5.598;2023-04-24T04:02:24;9.20;99.90
23717;DHT22;22094;52.130;5.598;2023-04-24T04:04:50;9.10;99.90
23717;DHT22;22094;52.130;5.598;2023-04-24T04:07:29;9.10;99.90
23717;DHT22;22094;52.130;5.598;2023-04-24T04:09:55;9.10;99.90
23717;DHT22;22094;52.130;5.598;2023-04-24T04:12:20;9.00;99.90
23717;DHT22;22094;52.130;5.598;2023-04-24T04:14:46;9.00;99.90
23717;DHT22;22094;52.130;5.598;2023-04-24T04:17:11;9.10;99.90
23717;DHT22;22094;52.130;5.598;2023-04-24T04:19:37;9.00;99.90
23717;DHT22;22094;52.130;5.598;2023-04-24T04:22:03;8.90;99.90
23717;DHT22;22094;52.130;5.598;2023-04-24T04:24:28;8.90;99.90
23717;DHT22;22094;52.130;5.598;2023-04-24T04:26:54;8.80;99.90
23717;DHT22;22094;52.130;5.598;2023-04-24T04:29:22;8.80;99.90
23717;DHT22;22094;52.130;5.598;2023-04-24T04:31:48;8.80;99.90
23717;DHT22;22094;52.130;5.598;2023-04-24T04:34:13;8.90;99.90
23717;DHT22;22094;52.130;5.598;2023-04-24T04:36:40;8.90;99.90
23717;DHT22;22094;52.130;5.598;2023-04-24T04:39:06;8.80;99.90
23717;DHT22;22094;52.130;5.598;2023-04-24T04:41:32;8.80;99.90
23717;DHT22;22094;52.130;5.598;2023-04-24T04:44:01;8.80;99.90
23717;DHT22;22094;52.130;5.598;2023-04-24T04:46:27;8.80;99.90
23717;DHT22;22094;52.130;5.598;2023-04-24T04:48:53;8.80;99.90
23717;DHT22;22094;52.130;5.598;2023-04-24T04:51:19;8.80;99.90
23717;DHT22;22094;52.130;5.598;2023-04-24T04:53:45;8.80;99.90
23717;DHT22;22094;52.130;5.598;2023-04-24T04:56:10;8.80;99.90
23717;DHT22;22094;52.130;5.598;2023-04-24T04:58:36;8.90;99.90
23717;DHT22;22094;52.130;5.598;2023-04-24T05:01:02;8.90;99.90
23717;DHT22;22094;52.130;5.598;2023-04-24T05:03:30;8.90;99.90
23717;DHT22;22094;52.130;5.598;2023-04-24T05:05:55;8.80;99.90
23717;DHT22;22094;52.130;5.598;2023-04-24T05:08:22;8.90;99.90
23717;DHT22;22094;52.130;5.598;2023-04-24T05:10:48;8.90;99.90
23717;DHT22;22094;52.130;5.598;2023-04-24T05:13:13;8.90;99.90
23717;DHT22;22094;52.130;5.598;2023-04-24T05:15:39;8.90;99.90
23717;DHT22;22094;52.130;5.598;2023-04-24T05:18:04;8.90;99.90
23717;DHT22;22094;52.130;5.598;2023-04-24T05:20:30;9.00;99.90
23717;DHT22;22094;52.130;5.598;2023-04-24T05:22:56;9.00;99.90
23717;DHT22;22094;52.130;5.598;2023-04-24T05:25:21;8.80;99.90
23717;DHT22;22094;52.130;5.598;2023-04-24T05:27:47;11.30;99.90
23717;DHT22;22094;52.130;5.598;2023-04-24T05:30:12;6.30;99.90
23717;DHT22;22094;52.130;5.598;2023-04-24T05:32:38;9.00;99.90
23717;DHT22;22094;52.130;5.598;2023-04-24T05:35:04;7.90;99.90
23717;DHT22;22094;52.130;5.598;2023-04-24T05:37:29;9.10;99.90
23717;DHT22;22094;52.130;5.598;2023-04-24T05:42:21;9.40;99.90
23717;DHT22;22094;52.130;5.598;2023-04-24T05:44:47;12.10;99.90
23717;DHT22;22094;52.130;5.598;2023-04-24T05:47:12;9.40;99.90
23717;DHT22;22094;52.130;5.598;2023-04-24T05:49:38;9.50;99.90
23717;DHT22;22094;52.130;5.598;2023-04-24T05:54:31;9.40;99.90
23717;DHT22;22094;52.130;5.598;2023-04-24T05:56:57;7.50;99.90
23717;DHT22;22094;52.130;5.598;2023-04-24T05:59:22;9.50;99.90
23717;DHT22;22094;52.130;5.598;2023-04-24T06:01:48;12.50;99.90
23717;DHT22;22094;52.130;5.598;2023-04-24T06:04:14;10.30;99.90
23717;DHT22;22094;52.130;5.598;2023-04-24T06:09:05;8.00;99.90
23717;DHT22;22094;52.130;5.598;2023-04-24T06:13:57;8.80;99.90
23717;DHT22;22094;52.130;5.598;2023-04-24T06:16:23;9.30;99.90
23717;DHT22;22094;52.130;5.598;2023-04-24T06:18:49;9.20;99.90
23717;DHT22;22094;52.130;5.598;2023-04-24T06:21:16;9.10;99.90
23717;DHT22;22094;52.130;5.598;2023-04-24T06:26:08;11.50;99.90
23717;DHT22;22094;52.130;5.598;2023-04-24T06:28:33;10.40;99.90
23717;DHT22;22094;52.130;5.598;2023-04-24T06:30:59;9.10;99.90
23717;DHT22;22094;52.130;5.598;2023-04-24T06:33:25;6.90;99.90
23717;DHT22;22094;52.130;5.598;2023-04-24T06:35:50;9.10;99.90
23717;DHT22;22094;52.130;5.598;2023-04-24T06:38:16;8.80;99.90
23717;DHT22;22094;52.130;5.598;2023-04-24T06:43:07;9.00;99.90
23717;DHT22;22094;52.130;5.598;2023-04-24T06:45:33;9.00;99.90
23717;DHT22;22094;52.130;5.598;2023-04-24T06:47:59;9.20;99.90
23717;DHT22;22094;52.130;5.598;2023-04-24T06:50:24;8.90;99.90
23717;DHT22;22094;52.130;5.598;2023-04-24T06:52:50;8.70;99.90
23717;DHT22;22094;52.130;5.598;2023-04-24T06:55:15;8.70;99.90
23717;DHT22;22094;52.130;5.598;2023-04-24T06:57:42;11.40;99.90
23717;DHT22;22094;52.130;5.598;2023-04-24T07:00:08;8.80;99.90
23717;DHT22;22094;52.130;5.598;2023-04-24T07:02:34;8.80;99.90
23717;DHT22;22094;52.130;5.598;2023-04-24T07:05:00;8.60;99.90
23717;DHT22;22094;52.130;5.598;2023-04-24T07:09:52;8.60;99.90
23717;DHT22;22094;52.130;5.598;2023-04-24T07:12:19;8.60;99.90
23717;DHT22;22094;52.130;5.598;2023-04-24T07:14:47;8.30;99.90
23717;DHT22;22094;52.130;5.598;2023-04-24T07:17:12;10.30;99.90
23717;DHT22;22094;52.130;5.598;2023-04-24T07:19:38;8.70;99.90
23717;DHT22;22094;52.130;5.598;2023-04-24T07:22:04;8.10;99.90
23717;DHT22;22094;52.130;5.598;2023-04-24T07:24:30;8.40;99.90
23717;DHT22;22094;52.130;5.598;2023-04-24T07:26:57;8.40;99.90
23717;DHT22;22094;52.130;5.598;2023-04-24T07:29:23;8.40;99.90
23717;DHT22;22094;52.130;5.598;2023-04-24T07:31:48;6.00;99.90
23717;DHT22;22094;52.130;5.598;2023-04-24T07:36:41;8.40;99.90
23717;DHT22;22094;52.130;5.598;2023-04-24T07:39:06;8.20;99.90
23717;DHT22;22094;52.130;5.598;2023-04-24T07:41:32;8.40;99.90
23717;DHT22;22094;52.130;5.598;2023-04-24T07:43:58;6.20;99.90
23717;DHT22;22094;52.130;5.598;2023-04-24T07:46:24;5.60;99.90
23717;DHT22;22094;52.130;5.598;2023-04-24T07:51:16;8.60;99.90
23717;DHT22;22094;52.130;5.598;2023-04-24T07:53:42;8.40;99.90
23717;DHT22;22094;52.130;5.598;2023-04-24T07:58:34;8.40;99.90
23717;DHT22;22094;52.130;5.598;2023-04-24T08:01:00;8.30;99.90
23717;DHT22;22094;52.130;5.598;2023-04-24T08:03:25;8.30;99.90
23717;DHT22;22094;52.130;5.598;2023-04-24T08:05:51;6.20;99.90
23717;DHT22;22094;52.130;5.598;2023-04-24T08:08:17;8.30;99.90
23717;DHT22;22094;52.130;5.598;2023-04-24T08:10:43;8.30;99.90
23717;DHT22;22094;52.130;5.598;2023-04-24T08:13:08;8.30;99.90
23717;DHT22;22094;52.130;5.598;2023-04-24T08:15:34;9.70;99.90
23717;DHT22;22094;52.130;5.598;2023-04-24T08:18:00;8.30;99.90
23717;DHT22;22094;52.130;5.598;2023-04-24T08:22:51;9.20;99.90
23717;DHT22;22094;52.130;5.598;2023-04-24T08:27:44;8.50;99.90
23717;DHT22;22094;52.130;5.598;2023-04-24T08:30:10;9.00;99.90
23717;DHT22;22094;52.130;5.598;2023-04-24T08:32:36;8.50;99.90
23717;DHT22;22094;52.130;5.598;2023-04-24T08:35:02;8.50;99.90
23717;DHT22;22094;52.130;5.598;2023-04-24T08:39:54;8.30;99.90
23717;DHT22;22094;52.130;5.598;2023-04-24T08:42:20;5.50;99.90
23717;DHT22;22094;52.130;5.598;2023-04-24T08:44:46;8.30;99.90
23717;DHT22;22094;52.130;5.598;2023-04-24T08:47:14;8.40;99.90
23717;DHT22;22094;52.130;5.598;2023-04-24T08:49:40;8.30;99.90
23717;DHT22;22094;52.130;5.598;2023-04-24T08:52:05;8.30;99.90
23717;DHT22;22094;52.130;5.598;2023-04-24T08:54:35;8.30;99.90
23717;DHT22;22094;52.130;5.598;2023-04-24T08:57:02;6.10;99.90
23717;DHT22;22094;52.130;5.598;2023-04-24T08:59:29;8.30;99.90
23717;DHT22;22094;52.130;5.598;2023-04-24T09:01:56;7.30;99.90
23717;DHT22;22094;52.130;5.598;2023-04-24T09:04:22;10.20;99.90
23717;DHT22;22094;52.130;5.598;2023-04-24T09:09:16;8.40;99.90
23717;DHT22;22094;52.130;5.598;2023-04-24T09:11:43;8.90;99.90
23717;DHT22;22094;52.130;5.598;2023-04-24T09:14:09;8.40;99.90
23717;DHT22;22094;52.130;5.598;2023-04-24T09:16:36;8.50;99.90
23717;DHT22;22094;52.130;5.598;2023-04-24T09:19:01;8.50;99.90
23717;DHT22;22094;52.130;5.598;2023-04-24T09:21:32;8.80;99.90
23717;DHT22;22094;52.130;5.598;2023-04-24T09:24:01;7.40;99.90
23717;DHT22;22094;52.130;5.598;2023-04-24T09:26:30;6.80;99.90
23717;DHT22;22094;52.130;5.598;2023-04-24T09:34:01;10.10;99.90
23717;DHT22;22094;52.130;5.598;2023-04-24T09:36:30;8.70;99.90
23717;DHT22;22094;52.130;5.598;2023-04-24T09:38:59;9.00;99.90
23717;DHT22;22094;52.130;5.598;2023-04-24T09:41:26;9.10;99.90
23717;DHT22;22094;52.130;5.598;2023-04-24T09:43:56;7.50;99.90
23717;DHT22;22094;52.130;5.598;2023-04-24T09:46:29;9.30;99.90
23717;DHT22;22094;52.130;5.598;2023-04-24T09:48:55;9.60;99.90
23717;DHT22;22094;52.130;5.598;2023-04-24T09:51:33;10.70;99.90
23717;DHT22;22094;52.130;5.598;2023-04-24T09:54:00;7.80;99.90
23717;DHT22;22094;52.130;5.598;2023-04-24T09:56:26;11.00;99.90
23717;DHT22;22094;52.130;5.598;2023-04-24T09:58:52;9.30;99.90
23717;DHT22;22094;52.130;5.598;2023-04-24T10:01:30;9.90;99.90
23717;DHT22;22094;52.130;5.598;2023-04-24T10:03:56;9.80;99.90
23717;DHT22;22094;52.130;5.598;2023-04-24T10:06:21;9.70;99.90
23717;DHT22;22094;52.130;5.598;2023-04-24T10:08:48;10.00;99.90
23717;DHT22;22094;52.130;5.598;2023-04-24T10:11:15;8.10;99.90
23717;DHT22;22094;52.130;5.598;2023-04-24T10:18:33;8.90;99.90
23717;DHT22;22094;52.130;5.598;2023-04-24T10:23:26;9.80;99.90
23717;DHT22;22094;52.130;5.598;2023-04-24T10:25:52;11.60;99.90
23717;DHT22;22094;52.130;5.598;2023-04-24T10:28:19;9.60;99.90
23717;DHT22;22094;52.130;5.598;2023-04-24T10:30:45;9.80;99.90
23717;DHT22;22094;52.130;5.598;2023-04-24T10:33:11;9.30;99.90
23717;DHT22;22094;52.130;5.598;2023-04-24T10:35:44;10.00;99.90
23717;DHT22;22094;52.130;5.598;2023-04-24T10:38:15;9.80;99.90
23717;DHT22;22094;52.130;5.598;2023-04-24T10:40:42;9.90;99.90
23717;DHT22;22094;52.130;5.598;2023-04-24T10:43:08;11.70;99.90
23717;DHT22;22094;52.130;5.598;2023-04-24T10:45:36;12.00;99.90
23717;DHT22;22094;52.130;5.598;2023-04-24T10:48:07;10.40;99.90
23717;DHT22;22094;52.130;5.598;2023-04-24T10:50:47;11.80;99.90
23717;DHT22;22094;52.130;5.598;2023-04-24T10:53:23;10.30;99.90
23717;DHT22;22094;52.130;5.598;2023-04-24T10:55:51;11.60;99.90
23717;DHT22;22094;52.130;5.598;2023-04-24T10:58:22;11.20;99.90
23717;DHT22;22094;52.130;5.598;2023-04-24T11:00:58;12.60;99.90
23717;DHT22;22094;52.130;5.598;2023-04-24T11:03:28;10.60;99.90
23717;DHT22;22094;52.130;5.598;2023-04-24T11:13:25;9.10;99.90
23717;DHT22;22094;52.130;5.598;2023-04-24T11:16:29;9.90;99.90
23717;DHT22;22094;52.130;5.598;2023-04-24T11:19:22;10.00;99.90
23717;DHT22;22094;52.130;5.598;2023-04-24T11:27:05;8.00;99.90
23717;DHT22;22094;52.130;5.598;2023-04-24T11:34:46;8.90;99.90
23717;DHT22;22094;52.130;5.598;2023-04-24T11:37:13;9.00;99.90
23717;DHT22;22094;52.130;5.598;2023-04-24T11:39:38;9.10;99.90
23717;DHT22;22094;52.130;5.598;2023-04-24T11:42:05;9.20;99.90
23717;DHT22;22094;52.130;5.598;2023-04-24T11:44:34;9.30;99.90
23717;DHT22;22094;52.130;5.598;2023-04-24T11:46:59;9.70;99.90
23717;DHT22;22094;52.130;5.598;2023-04-24T11:51:55;10.70;99.90
23717;DHT22;22094;52.130;5.598;2023-04-24T11:54:21;11.30;99.90
23717;DHT22;22094;52.130;5.598;2023-04-24T11:56:47;13.70;99.90
23717;DHT22;22094;52.130;5.598;2023-04-24T11:59:13;11.90;99.90
23717;DHT22;22094;52.130;5.598;2023-04-24T12:01:49;12.20;99.90
23717;DHT22;22094;52.130;5.598;2023-04-24T12:04:16;13.70;99.90
23717;DHT22;22094;52.130;5.598;2023-04-24T12:07:04;10.10;99.90
23717;DHT22;22094;52.130;5.598;2023-04-24T12:09:47;12.20;99.90
23717;DHT22;22094;52.130;5.598;2023-04-24T12:12:14;12.80;99.90
23717;DHT22;22094;52.130;5.598;2023-04-24T12:14:53;12.30;99.90
23717;DHT22;22094;52.130;5.598;2023-04-24T12:17:28;12.40;99.90
23717;DHT22;22094;52.130;5.598;2023-04-24T12:19:58;12.30;99.90
23717;DHT22;22094;52.130;5.598;2023-04-24T12:22:24;12.80;99.90
23717;DHT22;22094;52.130;5.598;2023-04-24T12:25:01;12.20;99.90
23717;DHT22;22094;52.130;5.598;2023-04-24T12:27:34;12.20;99.90
23717;DHT22;22094;52.130;5.598;2023-04-24T12:30:02;11.60;99.90
23717;DHT22;22094;52.130;5.598;2023-04-24T12:32:28;11.90;99.90
23717;DHT22;22094;52.130;5.598;2023-04-24T12:34:54;11.10;99.90
23717;DHT22;22094;52.130;5.598;2023-04-24T12:37:20;11.40;99.90
23717;DHT22;22094;52.130;5.598;2023-04-24T12:42:30;10.30;99.90
23717;DHT22;22094;52.130;5.598;2023-04-24T12:45:02;10.40;99.90
23717;DHT22;22094;52.130;5.598;2023-04-24T12:49:55;10.30;99.90
23717;DHT22;22094;52.130;5.598;2023-04-24T12:52:24;10.30;99.90
23717;DHT22;22094;52.130;5.598;2023-04-24T12:54:53;10.30;99.90
23717;DHT22;22094;52.130;5.598;2023-04-24T12:57:19;10.60;99.90
23717;DHT22;22094;52.130;5.598;2023-04-24T12:59:45;9.60;99.90
23717;DHT22;22094;52.130;5.598;2023-04-24T13:04:37;10.90;99.90
23717;DHT22;22094;52.130;5.598;2023-04-24T13:07:03;10.80;99.90
23717;DHT22;22094;52.130;5.598;2023-04-24T13:09:28;11.10;99.90
23717;DHT22;22094;52.130;5.598;2023-04-24T13:14:22;10.50;99.90
23717;DHT22;22094;52.130;5.598;2023-04-24T13:16:47;10.00;99.90
23717;DHT22;22094;52.130;5.598;2023-04-24T13:19:13;9.00;99.90
23717;DHT22;22094;52.130;5.598;2023-04-24T13:21:39;9.30;99.90
23717;DHT22;22094;52.130;5.598;2023-04-24T13:24:04;8.90;99.90
23717;DHT22;22094;52.130;5.598;2023-04-24T13:26:33;7.80;99.90
23717;DHT22;22094;52.130;5.598;2023-04-24T13:28:58;10.20;99.90
23717;DHT22;22094;52.130;5.598;2023-04-24T13:31:24;9.30;99.90
23717;DHT22;22094;52.130;5.598;2023-04-24T13:38:43;10.00;99.90
23717;DHT22;22094;52.130;5.598;2023-04-24T13:48:29;13.30;99.90
23717;DHT22;22094;52.130;5.598;2023-04-24T13:50:55;12.10;99.90
23717;DHT22;22094;52.130;5.598;2023-04-24T13:53:20;12.10;99.90
23717;DHT22;22094;52.130;5.598;2023-04-24T14:00:38;9.70;99.90
23717;DHT22;22094;52.130;5.598;2023-04-24T14:03:03;9.80;99.90
23717;DHT22;22094;52.130;5.598;2023-04-24T14:05:29;10.90;99.90
23717;DHT22;22094;52.130;5.598;2023-04-24T14:07:55;10.40;99.90
23717;DHT22;22094;52.130;5.598;2023-04-24T14:20:05;11.60;99.90
23717;DHT22;22094;52.130;5.598;2023-04-24T14:22:32;11.90;99.90
23717;DHT22;22094;52.130;5.598;2023-04-24T14:27:24;14.00;99.90
23717;DHT22;22094;52.130;5.598;2023-04-24T14:29:50;11.40;99.90
23717;DHT22;22094;52.130;5.598;2023-04-24T14:32:16;10.60;99.90
23717;DHT22;22094;52.130;5.598;2023-04-24T14:37:07;13.00;99.90
23717;DHT22;22094;52.130;5.598;2023-04-24T14:39:33;13.00;99.90
23717;DHT22;22094;52.130;5.598;2023-04-24T14:41:59;11.60;99.90
23717;DHT22;22094;52.130;5.598;2023-04-24T14:44:25;11.30;99.90
23717;DHT22;22094;52.130;5.598;2023-04-24T14:46:50;11.00;99.90
23717;DHT22;22094;52.130;5.598;2023-04-24T14:49:16;10.70;99.90
23717;DHT22;22094;52.130;5.598;2023-04-24T14:51:41;12.40;99.90
23717;DHT22;22094;52.130;5.598;2023-04-24T14:54:07;11.00;99.90
23717;DHT22;22094;52.130;5.598;2023-04-24T14:56:33;11.70;99.90
23717;DHT22;22094;52.130;5.598;2023-04-24T14:58:59;12.00;99.90
23717;DHT22;22094;52.130;5.598;2023-04-24T15:01:24;12.80;99.90
23717;DHT22;22094;52.130;5.598;2023-04-24T15:06:16;9.00;99.90
23717;DHT22;22094;52.130;5.598;2023-04-24T15:08:41;10.80;99.90
23717;DHT22;22094;52.130;5.598;2023-04-24T15:11:09;12.70;99.90
23717;DHT22;22094;52.130;5.598;2023-04-24T15:13:35;10.30;99.90
23717;DHT22;22094;52.130;5.598;2023-04-24T15:16:00;10.40;99.90
23717;DHT22;22094;52.130;5.598;2023-04-24T15:18:27;10.30;99.90
23717;DHT22;22094;52.130;5.598;2023-04-24T15:20:54;9.70;99.90
23717;DHT22;22094;52.130;5.598;2023-04-24T15:23:20;13.40;99.90
23717;DHT22;22094;52.130;5.598;2023-04-24T15:25:45;9.80;99.90
23717;DHT22;22094;52.130;5.598;2023-04-24T15:28:11;9.90;99.90
23717;DHT22;22094;52.130;5.598;2023-04-24T15:30:37;9.50;99.90
23717;DHT22;22094;52.130;5.598;2023-04-24T15:33:03;9.40;99.90
23717;DHT22;22094;52.130;5.598;2023-04-24T15:35:29;9.30;99.90
23717;DHT22;22094;52.130;5.598;2023-04-24T15:40:21;9.70;99.90
23717;DHT22;22094;52.130;5.598;2023-04-24T15:42:48;9.40;99.90
23717;DHT22;22094;52.130;5.598;2023-04-24T15:45:13;10.60;99.90
23717;DHT22;22094;52.130;5.598;2023-04-24T15:47:39;10.70;99.90
23717;DHT22;22094;52.130;5.598;2023-04-24T15:50:06;12.70;99.90
23717;DHT22;22094;52.130;5.598;2023-04-24T15:52:33;11.10;99.90
23717;DHT22;22094;52.130;5.598;2023-04-24T15:54:59;13.80;99.90
23717;DHT22;22094;52.130;5.598;2023-04-24T15:57:25;16.20;99.90
23717;DHT22;22094;52.130;5.598;2023-04-24T15:59:50;15.80;99.90
23717;DHT22;22094;52.130;5.598;2023-04-24T16:02:16;16.20;99.90
23717;DHT22;22094;52.130;5.598;2023-04-24T16:07:12;14.50;99.90
23717;DHT22;22094;52.130;5.598;2023-04-24T16:12:04;14.80;99.90
23717;DHT22;22094;52.130;5.598;2023-04-24T16:14:30;14.60;99.90
23717;DHT22;22094;52.130;5.598;2023-04-24T16:19:21;16.30;99.90
23717;DHT22;22094;52.130;5.598;2023-04-24T16:24:14;13.80;99.90
23717;DHT22;22094;52.130;5.598;2023-04-24T16:26:39;11.30;99.90
23717;DHT22;22094;52.130;5.598;2023-04-24T16:29:05;13.20;99.90
23717;DHT22;22094;52.130;5.598;2023-04-24T16:31:31;12.30;99.90
23717;DHT22;22094;52.130;5.598;2023-04-24T16:33:57;13.50;99.90
23717;DHT22;22094;52.130;5.598;2023-04-24T16:36:22;12.00;99.90
23717;DHT22;22094;52.130;5.598;2023-04-24T16:38:48;13.20;99.90
23717;DHT22;22094;52.130;5.598;2023-04-24T16:41:14;12.60;99.90
23717;DHT22;22094;52.130;5.598;2023-04-24T16:43:39;12.80;99.90
23717;DHT22;22094;52.130;5.598;2023-04-24T16:48:34;13.90;99.90
23717;DHT22;22094;52.130;5.598;2023-04-24T16:51:00;11.80;99.90
23717;DHT22;22094;52.130;5.598;2023-04-24T16:53:26;11.10;99.90
23717;DHT22;22094;52.130;5.598;2023-04-24T16:55:52;10.80;99.90
23717;DHT22;22094;52.130;5.598;2023-04-24T16:58:18;10.40;99.90
23717;DHT22;22094;52.130;5.598;2023-04-24T17:00:44;10.20;99.90
23717;DHT22;22094;52.130;5.598;2023-04-24T17:03:10;10.20;99.90
23717;DHT22;22094;52.130;5.598;2023-04-24T17:05:36;10.20;99.90
23717;DHT22;22094;52.130;5.598;2023-04-24T17:08:02;10.40;99.90
23717;DHT22;22094;52.130;5.598;2023-04-24T17:12:53;9.50;99.90
23717;DHT22;22094;52.130;5.598;2023-04-24T17:15:19;9.90;99.90
23717;DHT22;22094;52.130;5.598;2023-04-24T17:17:45;9.80;99.90
23717;DHT22;22094;52.130;5.598;2023-04-24T17:20:12;9.90;99.90
23717;DHT22;22094;52.130;5.598;2023-04-24T17:22:38;10.40;99.90
23717;DHT22;22094;52.130;5.598;2023-04-24T17:25:03;12.20;99.90
23717;DHT22;22094;52.130;5.598;2023-04-24T17:27:29;9.50;99.90
23717;DHT22;22094;52.130;5.598;2023-04-24T17:29:55;9.50;99.90
23717;DHT22;22094;52.130;5.598;2023-04-24T17:32:20;9.60;99.90
23717;DHT22;22094;52.130;5.598;2023-04-24T17:34:46;9.60;99.90
23717;DHT22;22094;52.130;5.598;2023-04-24T17:37:13;9.90;99.90
23717;DHT22;22094;52.130;5.598;2023-04-24T17:39:39;9.00;99.90
23717;DHT22;22094;52.130;5.598;2023-04-24T17:42:05;9.50;99.90
23717;DHT22;22094;52.130;5.598;2023-04-24T17:46:56;9.30;99.90
23717;DHT22;22094;52.130;5.598;2023-04-24T17:49:22;8.70;99.90